ADDS METAR Data INFO
IDs: Format: Raw Decoded Include TAF

Data at: 2012 UTC 18 Jul 2018

METAR for:EBBE (Beauvechain(AB), --, BX)
Text:EBBE 181955Z AUTO 35006KT 9999 NCD 20/12 Q1019 BLU
Temperature: 20.0°C ( 68°F)
Dewpoint: 12.0°C ( 54°F) [RH = 60%]
Pressure (altimeter):30.09 inches Hg (1019.0 mb)
Winds:from the N (350 degrees) at 7 MPH (6 knots; 3.1 m/s)
Visibility:6 or more sm (10+ km)
Ceiling:at least 12,000 feet AGL
Clouds:sky clear below 12,000 feet AGL

TAF for:EBBE (Beauvechain(AB), --, BX) issued at 1541 UTC 18 Jul 2018
Text:TAF EBBE 181541Z 1819/1907 01005KT 9999 FEW050 SCT200
Forecast period:1900 UTC 18 July 2018 to 0200 UTC 19 July 2018
Forecast type:FROM: standard forecast or significant change
Winds:from the N (10 degrees) at 6 MPH (5 knots; 2.6 m/s)
Visibility:6 or more sm (10+ km)
Ceiling:at least 12,000 feet AGL
Clouds: few clouds at 5000 feet AGL, scattered clouds at 20000 feet AGL
Text:BECMG 1902/1904 VRB01KT 8000 SKC
Forecast period:0200 to 0700 UTC 19 July 2018
Forecast type:BECOMING: Conditions expected to become as follows by 0400 UTC 19 July 2018
Winds:variable direction winds at 1 MPH (1 knots; 0.5 m/s)
Visibility: 5 sm ( 8 km)
Ceiling:at least 12,000 feet AGL
Clouds:clear skies